Terminal Aerodrome Forecast
Issued by NWS

Current Version | Previous Version | Text Only | Print | Product List | Glossary On
Versions: 1 2 3 4 5 6 7 8 9 10 11 12 13 14 15 16 17 18 19 20 21 22 23 24 25 26 27 28 29 30
000
FTUS41 KBOX 040542
TAFHYA
TAF
KHYA 040542Z 0406/0506 19013G23KT 5SM -RA BR OVC004 WS020/20050KT
     FM041000 23012G20KT 6SM -RA BR OVC008
     FM041200 25012KT P6SM OVC008
     FM041800 25010KT 6SM BR OVC015
     FM050000 25006KT P6SM OVC015
     FM050300 28006KT 3SM -FZRA BR OVC090
     FM050400 29006KT 3SM -FZRAPLSN BR OVC090
     FM050500 30006KT 3SM -SNPL BR OVC090=

USA.gov is the U.S. government's official web portal to all federal, state and local government web resources and services.